LFPOLFKC

Guest
Details From LFPO - Paris Orly
To LFKC - St Catherine
Flight Number -
Tags Decoded
Created
Modified
Stats Distance 458 nm / 848 km
Max Altitude 0 ft / 0 m
Waypoints 2
Social Downloads 1
Likes 0
Share VATSIM

Download

Looking for another format? Having issues loading an existing format? Contact us
Advertisement - Login to hide

Notes

Decoded

Route

LFPO LFKC

ID Type Via Altitude Latitude Longitude Leg Dist Tot Dist Heading (true) Name
O LFPO APT - 0 ft / 0 m 48.71772˚ 2.37681˚ - 0 nm - -
O LFKC APT - 0 ft / 0 m 42.54117˚ 8.79283˚ 458 nm 458 nm 142° / 146° -

Altitude Profile

Advertisement - Login to hide

Weather


0- 5 10 15 20 25 30 35+ Temperature / ° C

Clouds and Precipitation
Forecast for 2017-12-18 00:00 UTC. Updated 31 minutes ago

Ground ~20,000 ft ~40,000 ft Winds

LFPO

Details ICAO LFPO (ORY)
Name Paris Orly
Region France
Timezone Europe/Paris (UTC+1.0)
Stats Elevation 291 ft / 89 m (AMSL)
Location 48.726360° 2.367029°
Runways 3
Magnetic Variation 0.601° E

METAR

LFPO 172130Z 21007KT 4000 -DZ BR OVC004 04/03 Q1025 NOSIG

Decode

TAF

TAF LFPO 171700Z 1718/1824 20006KT 9999 BKN008 TEMPO 1718/1721 BKN004 TEMPO 1721/1805 21014G24KT 2000 -RADZ BKN003 BECMG 1806/1808 34010KT NSW BKN018 TEMPO 1820/1824 BKN012

Decode

Departure Runways

ID Width Length Bearing (true) Bearing (mag) Surface Threshold Offset Overrun Length
02 197 ft / 60 m 7,873 ft / 2,400 m 18.29° 17.69° Concrete 0 ft / 0 m 0 ft / 0 m
06 148 ft / 45 m 11,952 ft / 3,643 m 61.78° 61.18° Asphalt 984 ft / 300 m 197 ft / 60 m
08 148 ft / 45 m 10,868 ft / 3,313 m 74.36° 73.76° Concrete 0 ft / 0 m 1,050 ft / 320 m
20 197 ft / 60 m 7,873 ft / 2,400 m 198.30° 197.70° Concrete 0 ft / 0 m 0 ft / 0 m
24 148 ft / 45 m 11,952 ft / 3,643 m 241.81° 241.21° Asphalt 0 ft / 0 m 197 ft / 60 m
26 148 ft / 45 m 10,868 ft / 3,313 m 254.39° 253.79° Concrete 1,427 ft / 435 m 0 ft / 0 m

LFKC

Details ICAO LFKC (CLY)
Name St Catherine
Region France
Timezone Europe/Paris (UTC+1.0)
Stats Elevation 208 ft / 63 m (AMSL)
Location 42.530762° 8.792925°
Runways 1
Magnetic Variation 2.343° E

METAR

LFKC 172130Z AUTO 19004KT CAVOK 03/M02 Q1023

Decode

TAF

TAF AMD TAF AMD LFKC 171900Z 1719/1815 CNL

Decode

Destination Runways

ID Width Length Bearing (true) Bearing (mag) Surface Threshold Offset Overrun Length
18 131 ft / 40 m 7,596 ft / 2,315 m 179.60° 177.26° Concrete 0 ft / 0 m 0 ft / 0 m
36 131 ft / 40 m 7,596 ft / 2,315 m 359.60° 357.26° Concrete 656 ft / 200 m 0 ft / 0 m

Approach Navaids

Runway Type Ident Frequency Range Bearing (true) Bearing (mag) Slope Elevation
18 Localiser CLI 109.50 MHz 18 nm / 33 km 179.62° 177.27° - 230 ft / 70 m (AMSL)
18 DME CLI 109.50 MHz 18 nm / 33 km - - - 230 ft / 70 m (AMSL)

Popular Alternatives